バンクーバー の空港の天気 - METARとTAF

バンクーバー国際空港 ( CYVR / YVR ) - カナダ ブリティッシュコロンビア州バンクーバー
飛行場実況気象(Metar)
観測時間04/26 21:00 PDT (04/27 04:00 UTC)
風向・風速北西 2m/s
視程10km以上
天気現象
なし
気温13℃
湿度77%
気圧1012hPa
METARCYVR 270400Z 32004KT 30SM SKC 13/09 A2988 RMK SLP120
過去の天気等 Google飛行場航空写真 Wunderground天気予報

過去48時間のMETAR

飛行場予報(TAF)
発表時間: 4/26 19:39 PDT (4/27 02:39 UTC)
予報対象時間: 26日20時 PDT ~ 27日23時 PDT
風向・風速西北西 4m/s
視程10km以上
なし
26日21時 PDT ~ 26日23時 PDT に徐々に
風向・風速不定 2m/s
27日11時 PDT ~ 27日13時 PDT に徐々に
風向・風速西 4m/s
27日17時 PDT から
風向・風速東南東 4m/s
視程10km以上
少しの雲 雲底高度 2,440m
TAF CYVR 270239Z 2703/2806 30008KT P6SM SKC
BECMG 2704/2706 VRB03KT
BECMG 2718/2720 27008KT
FM280000 12008KT P6SM FEW080 RMK NXT FCST BY 270600Z